Observations

BIA Manual Entry


Date Temp Humidity Rainfall Dew Point Wind Direction Wind Speed Wind Pressure Condition Visibility
2025-05-07 20:59:11 29 72 0.00 24 020 7.6 1008 Partly Cloudy (Night) 10KM
2025-05-07 20:02:12 30 69 0.00 24 010 5.7 1007 Partly Cloudy (Night) 10KM
2025-05-07 18:58:38 31 67 0.00 24 010 9.5 1007 Partly Cloudy (Night) 15KM
2025-05-07 17:58:48 62 0.00 23 360 9.5 1006 Partly Cloudy (Day) 20KM
2025-05-07 16:58:46 32 63 0.00 24 360 13.3 1006 Partly Cloudy (Day) 20KM
2025-05-07 15:58:07 32 62 0.00 23 010 13.3 1005 Partly Cloudy (Day) 20KM
2025-05-07 14:59:55 33 62 0.00 24 350 13.3 1006 Partly Cloudy (Day) 20KM
2025-05-07 14:00:48 33 63 0.00 25 340 11.4 1007 Partly Cloudy (Day) 20KM
2025-05-07 12:58:24 32 66 25 350 17.1 1008 Partly Cloudy (Day) 20 KM
2025-05-07 12:00:23 33 62 25 340 11.4 1009 Distant showers 15 KM
2025-05-07 11:00:45 33 65 25 290 9.5 1010 Partly Cloudy (Day) 20 KM
2025-05-07 10:04:33 32 66 25 300 7.6 1010 Partly Cloudy (Day) 20 KM
2025-05-07 08:57:10 32 67 25 190 3.8 1010 Partly Cloudy (Day) 20 KM
2025-05-07 08:01:06 29 84 0.00 26 190 3.8 1010 Cloudy 20 KM
2025-05-07 06:59:08 28 90 0.00 26 190 3.8 1009 Cloudy 15 KM
2025-05-07 05:59:01 27 90 0.00 26 170 3.8 1008 Cloudy 10 KM
2025-05-07 05:01:57 27 91 0.00 26 050 1.9 1008 Cloudy 10 KM
2025-05-07 03:57:49 27 91 0.00 25 130 1.9 1008 Cloudy 10 KM
2025-05-07 02:59:45 27 89 0.00 25 040 1.9 1008 Cloudy 10 KM
2025-05-07 01:59:38 27 88 25 130 3.8 1009 Partly Cloudy (Night) 10 km
2025-05-07 00:57:19 27 88 25 110 1.9 1009 Partly Cloudy (Night) 10 km
2025-05-06 23:58:02 28 86 25 150 3.8 1010 Partly Cloudy (Night) 10 km
2025-05-06 22:58:30 28 79 24 070 1.9 1010 Partly Cloudy (Night) 10 km
2025-05-06 22:00:14 29 74 24 360 3.8 1010 Partly Cloudy (Night) 10 km
2025-05-06 21:00:48 30 76 25 360 5.7 1009 Partly Cloudy (Night) 10 KM